Time,TemperatureF,DewpointF,PressureIn,WindDirection,WindDirectionDegrees,WindSpeedMPH,WindSpeedGustMPH,Humidity,HourlyPrecipIn,Conditions,Clouds,dailyrainin,SoftwareType,DateUTC
2013-10-21 00:09:00,42.3,42.0,29.99,East,90,0.0,-999.0,99,-99.99,,,0.00,Acu-Link.com,2013-10-21 04:09:00,
2013-10-21 00:24:00,42.1,41.8,29.99,West,270,0.0,-999.0,99,-99.99,,,0.00,Acu-Link.com,2013-10-21 04:24:00,
2013-10-21 00:39:00,42.3,42.0,29.99,South,180,0.0,-999.0,99,-99.99,,,0.00,Acu-Link.com,2013-10-21 04:39:00,
2013-10-21 00:55:00,41.9,41.6,29.98,ENE,67,0.0,-999.0,99,-99.99,,,0.00,Acu-Link.com,2013-10-21 04:55:00,
2013-10-21 01:10:00,42.1,41.8,29.98,ENE,67,0.0,-999.0,99,-99.99,,,0.00,Acu-Link.com,2013-10-21 05:10:00,
2013-10-21 01:25:00,41.7,41.4,29.98,West,270,0.0,-999.0,99,-99.99,,,0.00,Acu-Link.com,2013-10-21 05:25:00,
2013-10-21 01:40:00,41.4,41.1,29.99,ENE,67,0.0,-999.0,99,-99.99,,,0.00,Acu-Link.com,2013-10-21 05:40:00,
2013-10-21 01:56:00,41.2,40.9,29.98,WSW,247,0.0,-999.0,99,-99.99,,,0.00,Acu-Link.com,2013-10-21 05:56:00,
2013-10-21 02:11:00,41.2,40.9,29.98,SSE,157,0.0,-999.0,99,-99.99,,,0.00,Acu-Link.com,2013-10-21 06:11:00,
2013-10-21 02:26:00,41.2,40.9,29.98,ESE,112,0.0,-999.0,99,-99.99,,,0.00,Acu-Link.com,2013-10-21 06:26:00,
2013-10-21 02:41:00,40.8,40.5,29.99,NNE,22,0.0,-999.0,99,-99.99,,,0.00,Acu-Link.com,2013-10-21 06:41:00,
2013-10-21 02:57:00,40.8,40.5,29.99,WNW,292,0.0,-999.0,99,-99.99,,,0.00,Acu-Link.com,2013-10-21 06:57:00,
2013-10-21 03:12:00,40.8,40.5,29.99,SSW,202,0.0,-999.0,99,-99.99,,,0.00,Acu-Link.com,2013-10-21 07:12:00,
2013-10-21 03:27:00,40.8,40.5,29.98,SSW,202,2.2,-999.0,99,-99.99,,,0.00,Acu-Link.com,2013-10-21 07:27:00,
2013-10-21 03:43:00,40.8,40.5,29.99,SW,225,1.7,-999.0,99,-99.99,,,0.00,Acu-Link.com,2013-10-21 07:43:00,
2013-10-21 03:58:00,40.8,40.5,29.98,South,180,0.0,-999.0,99,-99.99,,,0.00,Acu-Link.com,2013-10-21 07:58:00,
2013-10-21 04:13:00,40.6,40.3,29.98,WSW,247,0.0,-999.0,99,-99.99,,,0.00,Acu-Link.com,2013-10-21 08:13:00,
2013-10-21 04:28:00,40.1,39.8,29.99,ESE,112,0.0,-999.0,99,-99.99,,,0.00,Acu-Link.com,2013-10-21 08:28:00,
2013-10-21 04:44:00,40.1,39.8,29.99,East,90,0.0,-999.0,99,-99.99,,,0.00,Acu-Link.com,2013-10-21 08:44:00,
2013-10-21 04:59:00,40.1,39.8,29.99,SSE,157,0.0,-999.0,99,-99.99,,,0.00,Acu-Link.com,2013-10-21 08:59:00,
2013-10-21 05:14:00,39.7,39.4,30.00,WNW,292,0.0,-999.0,99,-99.99,,,0.00,Acu-Link.com,2013-10-21 09:14:00,
2013-10-21 05:29:00,40.6,40.3,30.00,SW,225,0.0,-999.0,99,-99.99,,,0.00,Acu-Link.com,2013-10-21 09:29:00,
2013-10-21 05:44:00,39.9,39.6,30.01,SSE,157,0.0,-999.0,99,-99.99,,,0.00,Acu-Link.com,2013-10-21 09:44:00,
2013-10-21 05:59:00,39.9,39.6,30.01,East,90,0.0,-999.0,99,-99.99,,,0.00,Acu-Link.com,2013-10-21 09:59:00,
2013-10-21 06:15:00,39.9,39.6,30.01,SE,135,0.0,-999.0,99,-99.99,,,0.00,Acu-Link.com,2013-10-21 10:15:00,
2013-10-21 06:30:00,39.7,39.4,30.01,ENE,67,0.0,-999.0,99,-99.99,,,0.00,Acu-Link.com,2013-10-21 10:30:00,
2013-10-21 06:45:00,39.6,39.3,30.01,SE,135,0.0,-999.0,99,-99.99,,,0.00,Acu-Link.com,2013-10-21 10:45:00,
2013-10-21 07:00:00,39.9,39.6,30.01,SSE,157,0.0,-999.0,99,-99.99,,,0.00,Acu-Link.com,2013-10-21 11:00:00,
2013-10-21 07:15:00,39.9,39.6,30.02,East,90,0.0,-999.0,99,-99.99,,,0.00,Acu-Link.com,2013-10-21 11:15:00,
2013-10-21 07:31:00,39.7,39.4,30.02,SE,135,0.0,-999.0,99,-99.99,,,0.00,Acu-Link.com,2013-10-21 11:31:00,
2013-10-21 07:46:00,39.6,39.3,30.02,South,180,0.0,-999.0,99,-99.99,,,0.00,Acu-Link.com,2013-10-21 11:46:00,
2013-10-21 08:01:00,40.1,39.8,30.02,SE,135,0.0,-999.0,99,-99.99,,,0.00,Acu-Link.com,2013-10-21 12:01:00,
2013-10-21 08:17:00,39.9,39.6,30.03,ESE,112,0.0,-999.0,99,-99.99,,,0.00,Acu-Link.com,2013-10-21 12:17:00,
2013-10-21 08:32:00,40.5,40.2,30.03,SE,135,0.0,-999.0,99,-99.99,,,0.00,Acu-Link.com,2013-10-21 12:32:00,
2013-10-21 08:48:00,40.6,40.3,30.04,ESE,112,0.0,-999.0,99,-99.99,,,0.00,Acu-Link.com,2013-10-21 12:48:00,
2013-10-21 09:03:00,41.2,40.9,30.03,SE,135,0.0,-999.0,99,-99.99,,,0.00,Acu-Link.com,2013-10-21 13:03:00,
2013-10-21 09:18:00,42.1,41.8,30.04,SW,225,0.0,-999.0,99,-99.99,,,0.00,Acu-Link.com,2013-10-21 13:18:00,
2013-10-21 09:34:00,42.4,42.1,30.05,SE,135,0.0,-999.0,99,-99.99,,,0.00,Acu-Link.com,2013-10-21 13:34:00,
2013-10-21 09:49:00,44.4,44.1,30.04,SW,225,0.0,-999.0,99,-99.99,,,0.00,Acu-Link.com,2013-10-21 13:49:00,
2013-10-21 10:06:00,45.9,45.6,30.04,West,270,0.0,-999.0,99,-99.99,,,0.00,Acu-Link.com,2013-10-21 14:06:00,
2013-10-21 10:21:00,46.8,46.5,30.04,SSE,157,0.0,-999.0,99,-99.99,,,0.00,Acu-Link.com,2013-10-21 14:21:00,
2013-10-21 10:36:00,48.7,48.4,30.04,SE,135,0.0,-999.0,99,-99.99,,,0.00,Acu-Link.com,2013-10-21 14:36:00,
2013-10-21 10:51:00,52.3,50.0,30.03,ESE,112,0.0,-999.0,92,-99.99,,,0.00,Acu-Link.com,2013-10-21 14:51:00,
2013-10-21 11:06:00,54.3,51.1,30.03,ENE,67,0.0,-999.0,89,-99.99,,,0.00,Acu-Link.com,2013-10-21 15:06:00,
2013-10-21 11:21:00,56.1,52.3,30.03,SSE,157,0.0,-999.0,87,-99.99,,,0.00,Acu-Link.com,2013-10-21 15:21:00,
2013-10-21 11:36:00,57.2,51.4,30.02,ESE,112,2.2,-999.0,81,-99.99,,,0.00,Acu-Link.com,2013-10-21 15:36:00,
2013-10-21 11:52:00,57.9,51.8,30.02,WSW,247,1.7,-999.0,80,-99.99,,,0.00,Acu-Link.com,2013-10-21 15:52:00,
2013-10-21 12:07:00,59.5,50.8,30.01,West,270,1.1,-999.0,73,-99.99,,,0.00,Acu-Link.com,2013-10-21 16:07:00,
2013-10-21 12:22:00,60.6,51.1,30.01,SE,135,0.0,-999.0,71,-99.99,,,0.00,Acu-Link.com,2013-10-21 16:22:00,
2013-10-21 12:38:00,60.4,51.3,30.01,East,90,1.1,-999.0,72,-99.99,,,0.00,Acu-Link.com,2013-10-21 16:38:00,
2013-10-21 12:53:00,62.2,49.9,30.00,NE,45,1.7,-999.0,64,-99.99,,,0.00,Acu-Link.com,2013-10-21 16:53:00,
2013-10-21 13:08:00,63.3,50.1,30.00,SW,225,2.2,-999.0,62,-99.99,,,0.00,Acu-Link.com,2013-10-21 17:08:00,
2013-10-21 13:23:00,64.6,50.4,29.98,East,90,1.1,-999.0,60,-99.99,,,0.00,Acu-Link.com,2013-10-21 17:23:00,
2013-10-21 13:39:00,64.8,51.0,29.97,SE,135,3.2,-999.0,61,-99.99,,,0.00,Acu-Link.com,2013-10-21 17:39:00,
2013-10-21 13:54:00,64.2,50.0,29.97,WNW,292,2.2,-999.0,60,-99.99,,,0.00,Acu-Link.com,2013-10-21 17:54:00,
2013-10-21 14:09:00,65.3,51.1,29.96,SE,135,0.0,-999.0,60,-99.99,,,0.00,Acu-Link.com,2013-10-21 18:09:00,
2013-10-21 14:24:00,65.3,51.1,29.96,WSW,247,2.7,-999.0,60,-99.99,,,0.00,Acu-Link.com,2013-10-21 18:24:00,
2013-10-21 14:39:00,63.9,50.2,29.95,South,180,1.1,-999.0,61,-99.99,,,0.00,Acu-Link.com,2013-10-21 18:39:00,
2013-10-21 14:55:00,64.2,51.8,29.95,NNW,337,2.2,-999.0,64,-99.99,,,0.00,Acu-Link.com,2013-10-21 18:55:00,
2013-10-21 15:10:00,64.4,52.0,29.94,East,90,1.7,-999.0,64,-99.99,,,0.00,Acu-Link.com,2013-10-21 19:10:00,
2013-10-21 15:25:00,64.0,50.7,29.93,ESE,112,0.0,-999.0,62,-99.99,,,0.00,Acu-Link.com,2013-10-21 19:25:00,
2013-10-21 15:41:00,65.1,51.3,29.92,West,270,1.1,-999.0,61,-99.99,,,0.00,Acu-Link.com,2013-10-21 19:41:00,
2013-10-21 15:56:00,64.8,50.1,29.92,WNW,292,1.7,-999.0,59,-99.99,,,0.00,Acu-Link.com,2013-10-21 19:56:00,
2013-10-21 16:11:00,64.2,50.9,29.93,SSE,157,0.0,-999.0,62,-99.99,,,0.00,Acu-Link.com,2013-10-21 20:11:00,
2013-10-21 16:26:00,64.2,52.2,29.92,WNW,292,0.0,-999.0,65,-99.99,,,0.00,Acu-Link.com,2013-10-21 20:26:00,
2013-10-21 16:41:00,63.5,53.5,29.93,SSE,157,0.0,-999.0,70,-99.99,,,0.00,Acu-Link.com,2013-10-21 20:41:00,
2013-10-21 16:57:00,63.1,52.8,29.93,NE,45,0.0,-999.0,69,-99.99,,,0.00,Acu-Link.com,2013-10-21 20:57:00,
2013-10-21 17:12:00,62.6,54.2,29.93,SE,135,0.0,-999.0,74,-99.99,,,0.00,Acu-Link.com,2013-10-21 21:12:00,
2013-10-21 17:27:00,62.2,52.3,29.93,SW,225,0.0,-999.0,70,-99.99,,,0.00,Acu-Link.com,2013-10-21 21:27:00,
2013-10-21 17:42:00,61.9,54.2,29.93,WNW,292,0.0,-999.0,76,-99.99,,,0.00,Acu-Link.com,2013-10-21 21:42:00,
2013-10-21 17:57:00,60.8,54.2,29.93,ESE,112,0.0,-999.0,79,-99.99,,,0.00,Acu-Link.com,2013-10-21 21:57:00,
2013-10-21 18:13:00,59.9,53.4,29.94,South,180,0.0,-999.0,79,-99.99,,,0.00,Acu-Link.com,2013-10-21 22:13:00,
2013-10-21 18:28:00,58.8,52.6,29.93,WNW,292,0.0,-999.0,80,-99.99,,,0.00,Acu-Link.com,2013-10-21 22:28:00,
2013-10-21 18:43:00,57.7,52.6,29.94,SE,135,0.0,-999.0,83,-99.99,,,0.00,Acu-Link.com,2013-10-21 22:43:00,
2013-10-21 18:58:00,56.7,52.2,29.94,SSW,202,0.0,-999.0,85,-99.99,,,0.00,Acu-Link.com,2013-10-21 22:58:00,
2013-10-21 19:13:00,55.9,52.1,29.94,East,90,0.0,-999.0,87,-99.99,,,0.00,Acu-Link.com,2013-10-21 23:13:00,
2013-10-21 19:29:00,55.0,51.8,29.94,East,90,0.0,-999.0,89,-99.99,,,0.00,Acu-Link.com,2013-10-21 23:29:00,
2013-10-21 19:44:00,54.7,51.8,29.94,SW,225,0.0,-999.0,90,-99.99,,,0.00,Acu-Link.com,2013-10-21 23:44:00,
2013-10-21 19:59:00,54.1,51.8,29.95,South,180,0.0,-999.0,92,-99.99,,,0.00,Acu-Link.com,2013-10-21 23:59:00,
2013-10-21 20:14:00,53.4,51.7,29.95,ENE,67,0.0,-999.0,94,-99.99,,,0.00,Acu-Link.com,2013-10-22 00:14:00,
2013-10-21 20:30:00,52.9,51.5,29.95,East,90,1.7,-999.0,95,-99.99,,,0.00,Acu-Link.com,2013-10-22 00:30:00,
2013-10-21 20:45:00,52.5,51.4,29.95,East,90,0.0,-999.0,96,-99.99,,,0.00,Acu-Link.com,2013-10-22 00:45:00,
2013-10-21 21:15:00,52.9,51.8,29.94,SSE,157,0.0,-999.0,96,-99.99,,,0.00,Acu-Link.com,2013-10-22 01:15:00,
2013-10-21 21:30:00,52.7,51.6,29.94,SSW,202,0.0,-999.0,96,-99.99,,,0.00,Acu-Link.com,2013-10-22 01:30:00,
2013-10-21 21:45:00,52.3,51.5,29.94,SW,225,0.0,-999.0,97,-99.99,,,0.00,Acu-Link.com,2013-10-22 01:45:00,
2013-10-21 22:01:00,52.2,51.4,29.94,WSW,247,0.0,-999.0,97,-99.99,,,0.00,Acu-Link.com,2013-10-22 02:01:00,
2013-10-21 22:17:00,52.0,51.2,29.94,SW,225,0.0,-999.0,97,-99.99,,,0.00,Acu-Link.com,2013-10-22 02:17:00,
2013-10-21 22:32:00,51.6,50.8,29.94,East,90,0.0,-999.0,97,-99.99,,,0.00,Acu-Link.com,2013-10-22 02:32:00,
2013-10-21 22:48:00,51.4,50.9,29.94,SW,225,0.0,-999.0,98,-99.99,,,0.00,Acu-Link.com,2013-10-22 02:48:00,
2013-10-21 23:03:00,51.3,50.8,29.95,ESE,112,0.0,-999.0,98,-99.99,,,0.00,Acu-Link.com,2013-10-22 03:03:00,
2013-10-21 23:18:00,51.1,50.6,29.95,SSW,202,0.0,-999.0,98,-99.99,,,0.00,Acu-Link.com,2013-10-22 03:18:00,
2013-10-21 23:33:00,50.9,50.6,29.96,ENE,67,0.0,-999.0,99,-99.99,,,0.00,Acu-Link.com,2013-10-22 03:33:00,
2013-10-21 23:48:00,50.9,50.6,29.95,SE,135,0.0,-999.0,99,-99.99,,,0.00,Acu-Link.com,2013-10-22 03:48:00,